Sanford, Michigan
Current Conditions -  °F | °C
As of 7:09 PM on Sunday 25 Jan 2015 (Local Time) from KIKW Reporting Station
Clear Clear  
Wind Chill: -13°   Ceiling: Unl
Heat Index: -7°   Visibility: 10mi
Dew Point: -13°   Wind: 9mph
Humidity: 65%   Direction: 40°NE
Pressure: 30.04"   Gusts: NA
Location:  43.67°N, 84.38°W
Report Text: KIKW 260009Z AUTO 04008KT 10SM CLR M07/M13 A3004 RMK AO2 T10731129
Loading
Personal Weather Stations






























Interactive Weather Map New forecast layout! Learn more

10-Day Weather Forecast

Advertisements
Track Severe Weather on mobile